createdAt,value
2018-12-18T00:01:19.737Z,17.90
2018-12-18T00:03:49.900Z,17.83
2018-12-18T00:06:19.788Z,18.27
2018-12-18T00:08:49.594Z,18.90
2018-12-18T00:11:19.406Z,17.27
2018-12-18T00:13:49.232Z,16.43
2018-12-18T00:16:19.344Z,19.13
2018-12-18T00:18:49.083Z,16.13
2018-12-18T00:21:18.904Z,14.00
2018-12-18T00:23:49.420Z,13.13
2018-12-18T00:26:19.356Z,12.17
2018-12-18T00:28:49.546Z,12.13
2018-12-18T00:31:19.904Z,11.53
2018-12-18T00:33:49.661Z,9.80
2018-12-18T00:36:19.452Z,10.10
2018-12-18T00:38:49.156Z,9.90
2018-12-18T00:41:18.907Z,9.60
2018-12-18T00:43:48.716Z,8.47
2018-12-18T00:46:18.558Z,8.20
2018-12-18T00:48:48.534Z,11.97
2018-12-18T00:51:18.332Z,8.83
2018-12-18T00:53:48.524Z,8.87
2018-12-18T00:56:19.034Z,8.77
2018-12-18T01:02:24.544Z,8.00
2018-12-18T01:04:54.806Z,7.27
2018-12-18T01:07:25.649Z,7.50
2018-12-18T01:09:55.445Z,7.43
2018-12-18T01:12:25.321Z,7.87
2018-12-18T01:14:55.229Z,7.57
2018-12-18T01:17:25.010Z,7.57
2018-12-18T01:19:54.905Z,7.60
2018-12-18T01:22:24.673Z,7.53
2018-12-18T01:24:54.521Z,7.27
2018-12-18T01:27:24.267Z,7.53
2018-12-18T01:29:54.023Z,6.83
2018-12-18T01:32:24.179Z,7.47
2018-12-18T01:34:54.262Z,7.33
2018-12-18T01:37:24.137Z,7.10
2018-12-18T01:39:54.429Z,7.10
2018-12-18T01:42:24.705Z,7.17
2018-12-18T01:44:55.164Z,6.90
2018-12-18T01:47:24.994Z,7.47
2018-12-18T01:49:55.046Z,7.07
2018-12-18T01:52:24.843Z,7.20
2018-12-18T01:54:54.764Z,6.70
2018-12-18T01:57:24.983Z,6.87
2018-12-18T01:59:54.736Z,7.57
2018-12-18T02:02:24.543Z,8.40
2018-12-18T02:04:54.652Z,7.80
2018-12-18T02:07:24.444Z,10.17
2018-12-18T02:09:54.734Z,9.63
2018-12-18T02:12:24.491Z,8.43
2018-12-18T02:18:30.294Z,7.00
2018-12-18T02:21:00.062Z,7.43
2018-12-18T02:23:29.918Z,7.60
2018-12-18T02:25:59.652Z,7.00
2018-12-18T02:28:29.510Z,6.23
2018-12-18T02:30:59.279Z,6.37
2018-12-18T02:33:29.052Z,6.93
2018-12-18T02:35:59.078Z,6.43
2018-12-18T02:38:28.820Z,6.90
2018-12-18T02:40:58.589Z,7.20
2018-12-18T02:43:28.375Z,7.43
2018-12-18T02:45:58.156Z,6.80
2018-12-18T02:48:28.749Z,6.67
2018-12-18T02:50:58.553Z,6.47
2018-12-18T02:53:28.345Z,6.77
2018-12-18T02:55:58.143Z,6.47
2018-12-18T02:58:28.159Z,6.93
2018-12-18T03:00:57.942Z,7.90
2018-12-18T03:03:28.024Z,7.90
2018-12-18T03:05:57.813Z,6.97
2018-12-18T03:08:27.601Z,13.63
2018-12-18T03:10:57.390Z,8.50
2018-12-18T03:13:27.367Z,8.07
2018-12-18T03:15:57.151Z,14.60
2018-12-18T03:18:26.965Z,13.93
2018-12-18T03:20:56.783Z,15.73
2018-12-18T03:23:26.548Z,20.73
2018-12-18T03:25:56.427Z,29.77
2018-12-18T03:28:26.229Z,25.57
2018-12-18T03:30:57.505Z,29.87
2018-12-18T03:33:28.177Z,29.00
2018-12-18T03:35:57.996Z,27.00
2018-12-18T03:38:27.810Z,29.80
2018-12-18T03:40:58.396Z,35.80
2018-12-18T03:43:28.325Z,36.80
2018-12-18T03:45:58.371Z,33.73
2018-12-18T03:48:28.250Z,32.67
2018-12-18T03:50:58.068Z,31.20
2018-12-18T03:53:28.227Z,29.73
2018-12-18T03:55:58.536Z,34.93
2018-12-18T03:58:28.355Z,41.07
2018-12-18T04:00:58.446Z,34.80
2018-12-18T04:03:28.342Z,34.27
2018-12-18T04:05:58.668Z,38.43
2018-12-18T04:08:29.761Z,37.73
2018-12-18T04:10:59.971Z,40.60
2018-12-18T04:13:30.017Z,40.87
2018-12-18T04:16:00.322Z,47.67
2018-12-18T04:18:30.697Z,36.50
2018-12-18T04:21:00.731Z,42.10
2018-12-18T04:23:30.580Z,31.03
2018-12-18T04:26:00.422Z,42.00
2018-12-18T04:28:30.242Z,40.77
2018-12-18T04:31:00.608Z,32.30
2018-12-18T04:33:31.422Z,36.30
2018-12-18T04:36:01.212Z,30.27
2018-12-18T04:38:31.128Z,30.63
2018-12-18T04:41:02.064Z,39.43
2018-12-18T04:43:31.873Z,35.10
2018-12-18T04:46:01.858Z,23.57
2018-12-18T04:48:32.087Z,27.20
2018-12-18T04:51:02.136Z,25.33
2018-12-18T04:53:32.024Z,29.73
2018-12-18T04:56:01.870Z,22.83
2018-12-18T04:58:32.412Z,27.13
2018-12-18T05:01:02.241Z,22.70
2018-12-18T05:03:32.231Z,22.37
2018-12-18T05:06:02.801Z,23.40
2018-12-18T05:08:32.949Z,20.13
2018-12-18T05:11:03.052Z,20.10
2018-12-18T05:13:33.537Z,21.70
2018-12-18T05:16:03.416Z,20.53
2018-12-18T05:18:33.223Z,20.30
2018-12-18T05:21:03.433Z,16.83
2018-12-18T05:23:33.268Z,21.33
2018-12-18T05:26:03.164Z,16.77
2018-12-18T05:28:33.388Z,15.53
2018-12-18T05:31:03.304Z,18.33
2018-12-18T05:33:33.362Z,16.67
2018-12-18T05:36:04.021Z,14.73
2018-12-18T05:38:34.149Z,12.63
2018-12-18T05:41:03.923Z,12.10
2018-12-18T05:43:33.723Z,11.60
2018-12-18T05:46:03.483Z,10.23
2018-12-18T05:48:34.249Z,10.30
2018-12-18T05:51:04.257Z,8.93
2018-12-18T05:53:34.203Z,8.47
2018-12-18T05:56:04.299Z,8.30
2018-12-18T05:58:34.159Z,7.70
2018-12-18T06:01:03.957Z,7.60
2018-12-18T06:03:33.878Z,7.77
2018-12-18T06:06:04.920Z,8.63
2018-12-18T06:08:34.930Z,10.03
2018-12-18T06:11:04.873Z,9.47
2018-12-18T06:13:34.647Z,9.30
2018-12-18T06:16:04.775Z,10.30
2018-12-18T06:18:34.568Z,11.40
2018-12-18T06:21:04.462Z,10.37
2018-12-18T06:23:34.495Z,10.67
2018-12-18T06:26:04.374Z,9.60
2018-12-18T06:28:34.283Z,10.63
2018-12-18T06:31:04.706Z,12.90
2018-12-18T06:33:34.560Z,12.67
2018-12-18T06:36:04.486Z,12.57
2018-12-18T06:38:34.264Z,12.90
2018-12-18T06:41:04.060Z,13.07
2018-12-18T06:43:34.110Z,18.13
2018-12-18T06:46:04.012Z,18.13
2018-12-18T06:48:33.908Z,25.27
2018-12-18T06:51:03.626Z,21.93
2018-12-18T06:53:34.130Z,18.87
2018-12-18T06:56:03.980Z,20.50
2018-12-18T06:58:33.774Z,16.77
2018-12-18T07:01:03.802Z,23.10
2018-12-18T07:03:33.680Z,18.03
2018-12-18T07:06:04.520Z,19.17
2018-12-18T07:08:34.304Z,17.60
2018-12-18T07:11:04.482Z,17.43
2018-12-18T07:13:34.259Z,20.17
2018-12-18T07:16:04.080Z,21.20
2018-12-18T07:18:33.894Z,19.50
2018-12-18T07:21:04.002Z,17.50
2018-12-18T07:23:34.124Z,19.53
2018-12-18T07:26:04.169Z,20.10
2018-12-18T07:28:33.923Z,16.27
2018-12-18T07:31:03.691Z,15.13
2018-12-18T07:33:33.941Z,14.33
2018-12-18T07:36:03.815Z,13.83
2018-12-18T07:38:33.865Z,13.47
2018-12-18T07:41:03.655Z,15.23
2018-12-18T07:43:34.439Z,14.33
2018-12-18T07:46:04.327Z,14.97
2018-12-18T07:48:34.096Z,16.40
2018-12-18T07:51:03.979Z,17.93
2018-12-18T07:53:35.358Z,24.20
2018-12-18T07:56:05.463Z,22.57
2018-12-18T07:58:35.251Z,19.47
2018-12-18T08:01:05.025Z,21.43
2018-12-18T08:03:35.153Z,20.00
2018-12-18T08:06:05.380Z,21.13
2018-12-18T08:08:35.123Z,21.17
2018-12-18T08:11:05.165Z,19.23
2018-12-18T08:13:34.895Z,23.03
2018-12-18T08:16:04.655Z,20.13
2018-12-18T08:18:34.434Z,19.13
2018-12-18T08:21:04.661Z,23.93
2018-12-18T08:23:34.377Z,20.40
2018-12-18T08:26:04.119Z,20.43
2018-12-18T08:28:33.861Z,18.63
2018-12-18T08:31:03.671Z,17.10
2018-12-18T08:33:33.442Z,15.20
2018-12-18T08:36:03.201Z,33.40
2018-12-18T08:38:32.923Z,19.40
2018-12-18T08:41:02.647Z,15.53
2018-12-18T08:43:32.383Z,14.70
2018-12-18T08:46:02.378Z,13.30
2018-12-18T08:48:32.111Z,13.30
2018-12-18T08:51:01.892Z,19.63
2018-12-18T08:53:31.657Z,12.60
2018-12-18T08:56:01.423Z,14.73
2018-12-18T08:58:31.151Z,15.17
2018-12-18T09:01:00.929Z,13.40
2018-12-18T09:03:30.955Z,10.50
2018-12-18T09:06:00.703Z,14.37
2018-12-18T09:08:30.447Z,12.63
2018-12-18T09:11:00.448Z,11.47
2018-12-18T09:13:30.187Z,11.47
2018-12-18T09:15:59.925Z,11.57
2018-12-18T09:18:29.635Z,16.07
2018-12-18T09:20:59.391Z,13.33
2018-12-18T09:23:29.104Z,11.73
2018-12-18T09:25:58.853Z,13.57
2018-12-18T09:28:28.539Z,11.23
2018-12-18T09:30:58.259Z,11.80
2018-12-18T09:33:28.005Z,10.03
2018-12-18T09:35:57.791Z,13.83
2018-12-18T09:38:32.758Z,12.93
2018-12-18T09:41:07.622Z,10.67
2018-12-18T09:44:13.879Z,18.53
2018-12-18T09:46:43.623Z,17.23
2018-12-18T09:49:13.416Z,19.00
2018-12-18T09:51:43.265Z,20.93
2018-12-18T09:54:13.314Z,21.67
2018-12-18T09:56:48.069Z,22.17
2018-12-18T09:59:18.349Z,21.87
2018-12-18T10:01:48.597Z,27.77
2018-12-18T10:04:18.483Z,20.33
2018-12-18T10:06:48.241Z,24.37
2018-12-18T10:09:18.009Z,26.77
2018-12-18T10:11:47.801Z,33.10
2018-12-18T10:14:17.989Z,39.37
2018-12-18T10:16:47.779Z,33.30
2018-12-18T10:19:17.578Z,38.27
2018-12-18T10:21:47.417Z,31.47
2018-12-18T10:24:17.624Z,34.87
2018-12-18T10:26:47.349Z,36.50
2018-12-18T10:29:17.096Z,37.97
2018-12-18T10:31:46.830Z,33.80
2018-12-18T10:34:17.320Z,33.87
2018-12-18T10:36:47.059Z,41.70
2018-12-18T10:39:16.816Z,29.23
2018-12-18T10:41:46.515Z,26.93
2018-12-18T10:44:16.235Z,37.60
2018-12-18T10:46:46.147Z,27.07
2018-12-18T10:49:15.892Z,23.20
2018-12-18T10:51:45.646Z,23.97
2018-12-18T10:54:15.841Z,21.33
2018-12-18T10:56:45.595Z,22.63
2018-12-18T10:59:15.439Z,24.20
2018-12-18T11:01:47.866Z,18.17
2018-12-18T11:04:17.635Z,16.00
2018-12-18T11:06:47.405Z,16.53
2018-12-18T11:09:18.051Z,13.60
2018-12-18T11:11:47.784Z,17.00
2018-12-18T11:14:17.492Z,16.93
2018-12-18T11:16:47.504Z,15.77
2018-12-18T11:19:17.498Z,17.30
2018-12-18T11:21:47.246Z,16.63
2018-12-18T11:24:16.942Z,18.93
2018-12-18T11:26:46.658Z,16.70
2018-12-18T11:29:16.398Z,15.57
2018-12-18T11:31:46.131Z,18.23
2018-12-18T11:34:16.042Z,19.07
2018-12-18T11:36:45.770Z,19.00
2018-12-18T11:39:15.486Z,26.00
2018-12-18T11:41:45.225Z,32.03
2018-12-18T11:44:15.038Z,36.83
2018-12-18T11:46:44.934Z,28.43
2018-12-18T11:49:14.790Z,29.90
2018-12-18T11:51:45.367Z,26.07
2018-12-18T11:54:15.190Z,41.53
2018-12-18T11:56:44.986Z,28.97
2018-12-18T11:59:15.427Z,44.50
2018-12-18T12:01:45.499Z,34.97
2018-12-18T12:04:15.289Z,27.37
2018-12-18T12:06:45.064Z,25.33
2018-12-18T12:09:15.382Z,25.40
2018-12-18T12:11:45.178Z,29.13
2018-12-18T12:14:15.238Z,29.73
2018-12-18T12:16:44.977Z,30.17
2018-12-18T12:19:14.764Z,46.63
2018-12-18T12:21:44.505Z,69.43
2018-12-18T12:24:14.376Z,34.20
2018-12-18T12:26:48.938Z,35.10
2018-12-18T12:29:18.760Z,25.20
2018-12-18T12:31:48.578Z,35.40
2018-12-18T12:34:19.318Z,27.47
2018-12-18T12:36:49.124Z,28.20
2018-12-18T12:39:18.886Z,21.27
2018-12-18T12:41:49.462Z,31.83
2018-12-18T12:44:19.189Z,25.23
2018-12-18T12:46:49.265Z,20.47
2018-12-18T12:49:19.110Z,27.73
2018-12-18T12:51:48.884Z,26.90
2018-12-18T12:54:18.962Z,45.13
2018-12-18T12:56:48.778Z,44.77
2018-12-18T12:59:18.552Z,21.87
2018-12-18T13:01:48.525Z,26.73
2018-12-18T13:04:18.320Z,20.20
2018-12-18T13:06:48.129Z,25.80
2018-12-18T13:09:17.995Z,27.57
2018-12-18T13:11:47.900Z,13.70
2018-12-18T13:14:17.747Z,32.47
2018-12-18T13:16:47.596Z,16.60
2018-12-18T13:19:17.572Z,18.23
2018-12-18T13:21:47.564Z,17.90
2018-12-18T13:24:17.667Z,14.47
2018-12-18T13:26:47.593Z,14.50
2018-12-18T13:29:17.337Z,16.47
2018-12-18T13:31:47.092Z,15.77
2018-12-18T13:34:16.869Z,18.33
2018-12-18T13:36:46.638Z,21.03
2018-12-18T13:39:16.719Z,16.63
2018-12-18T13:41:46.465Z,21.43
2018-12-18T13:44:16.247Z,28.47
2018-12-18T13:46:46.034Z,25.47
2018-12-18T13:49:15.851Z,23.27
2018-12-18T13:51:45.647Z,24.37
2018-12-18T13:54:15.632Z,19.40
2018-12-18T13:56:45.388Z,20.47
2018-12-18T13:59:15.131Z,20.23
2018-12-18T14:01:44.943Z,20.13
2018-12-18T14:04:14.725Z,19.33
2018-12-18T14:06:49.705Z,16.43
2018-12-18T14:09:16.223Z,17.57
2018-12-18T14:11:45.952Z,17.17
2018-12-18T14:14:15.689Z,18.40
2018-12-18T14:16:45.416Z,15.93
2018-12-18T14:19:16.012Z,15.27
2018-12-18T14:21:45.761Z,21.27
2018-12-18T14:24:15.681Z,15.37
2018-12-18T14:26:45.759Z,16.87
2018-12-18T14:29:16.119Z,13.37
2018-12-18T14:31:45.875Z,14.10
2018-12-18T14:34:15.962Z,15.00
2018-12-18T14:36:45.726Z,15.90
2018-12-18T14:39:15.705Z,13.63
2018-12-18T14:41:45.427Z,12.80
2018-12-18T14:44:15.314Z,12.00
2018-12-18T14:46:45.048Z,12.47
2018-12-18T14:49:14.818Z,12.63
2018-12-18T14:51:44.541Z,12.40
2018-12-18T14:54:15.030Z,13.70
2018-12-18T14:56:44.809Z,11.47
2018-12-18T14:59:14.558Z,11.93
2018-12-18T15:01:46.704Z,12.80
2018-12-18T15:04:16.427Z,10.57
2018-12-18T15:06:46.156Z,12.53
2018-12-18T15:09:15.927Z,12.50
2018-12-18T15:11:45.706Z,11.97
2018-12-18T15:14:15.479Z,12.43
2018-12-18T15:16:45.203Z,15.83
2018-12-18T15:19:14.945Z,12.90
2018-12-18T15:21:44.642Z,11.73
2018-12-18T15:24:14.515Z,10.07
2018-12-18T15:26:44.353Z,17.33
2018-12-18T15:29:14.090Z,12.00
2018-12-18T15:31:43.851Z,11.07
2018-12-18T15:34:13.629Z,13.10
2018-12-18T15:36:43.414Z,13.63
2018-12-18T15:39:13.615Z,10.83
2018-12-18T15:41:43.431Z,11.70
2018-12-18T15:44:13.193Z,11.83
2018-12-18T15:46:43.003Z,11.83
2018-12-18T15:49:12.798Z,11.33
2018-12-18T15:51:42.681Z,14.60
2018-12-18T15:54:12.448Z,12.77
2018-12-18T15:56:42.223Z,11.67
2018-12-18T15:59:12.037Z,11.83
2018-12-18T16:01:41.793Z,20.37
2018-12-18T16:04:11.551Z,11.83
2018-12-18T16:06:41.271Z,12.07
2018-12-18T16:09:11.034Z,11.57
2018-12-18T16:11:40.749Z,11.33
2018-12-18T16:14:10.543Z,12.30
2018-12-18T16:16:40.593Z,11.53
2018-12-18T16:19:10.788Z,12.40
2018-12-18T16:21:41.483Z,10.90
2018-12-18T16:24:11.322Z,11.93
2018-12-18T16:26:41.092Z,11.43
2018-12-18T16:29:10.971Z,11.97
2018-12-18T16:31:40.743Z,13.87
2018-12-18T16:34:10.546Z,16.83
2018-12-18T16:36:40.330Z,16.07
2018-12-18T16:39:10.110Z,16.63
2018-12-18T16:41:39.919Z,16.43
2018-12-18T16:44:09.724Z,18.50
2018-12-18T16:46:39.886Z,15.90
2018-12-18T16:49:09.660Z,15.57
2018-12-18T16:51:39.674Z,13.70
2018-12-18T16:54:10.116Z,13.43
2018-12-18T16:56:40.446Z,15.13
2018-12-18T16:59:10.220Z,11.90
2018-12-18T17:01:40.035Z,12.63
2018-12-18T17:04:10.129Z,13.13
2018-12-18T17:06:40.294Z,13.67
2018-12-18T17:09:10.482Z,12.43
2018-12-18T17:11:40.253Z,12.13
2018-12-18T17:14:10.326Z,12.50
2018-12-18T17:16:40.325Z,12.50
2018-12-18T17:19:10.191Z,12.60
2018-12-18T17:21:40.052Z,13.00
2018-12-18T17:24:09.817Z,12.67
2018-12-18T17:26:39.657Z,12.20
2018-12-18T17:29:09.445Z,12.23
2018-12-18T17:31:39.219Z,13.43
2018-12-18T17:34:08.999Z,14.30
2018-12-18T17:36:38.799Z,17.10
2018-12-18T17:39:09.677Z,16.30
2018-12-18T17:41:39.459Z,19.03
2018-12-18T17:44:09.282Z,15.17
2018-12-18T17:46:39.051Z,14.27
2018-12-18T17:49:08.835Z,14.47
2018-12-18T17:51:38.891Z,15.40
2018-12-18T17:54:08.643Z,16.40
2018-12-18T17:56:38.374Z,14.10
2018-12-18T17:59:08.191Z,16.40
2018-12-18T18:01:37.963Z,14.07
2018-12-18T18:04:08.152Z,25.07
2018-12-18T18:06:38.261Z,12.67
2018-12-18T18:09:10.433Z,15.70
2018-12-18T18:11:40.180Z,13.77
2018-12-18T18:14:09.970Z,17.03
2018-12-18T18:16:39.797Z,12.53
2018-12-18T18:19:09.877Z,15.77
2018-12-18T18:21:39.682Z,16.07
2018-12-18T18:24:09.483Z,14.50
2018-12-18T18:26:39.233Z,20.80
2018-12-18T18:29:09.034Z,30.00
2018-12-18T18:31:38.841Z,16.67
2018-12-18T18:34:08.671Z,29.40
2018-12-18T18:36:38.635Z,26.63
2018-12-18T18:39:09.609Z,19.97
2018-12-18T18:41:39.411Z,21.73
2018-12-18T18:44:09.235Z,22.57
2018-12-18T18:46:39.433Z,22.60
2018-12-18T18:49:09.700Z,16.37
2018-12-18T18:51:39.516Z,17.97
2018-12-18T18:54:09.345Z,30.87
2018-12-18T18:56:39.141Z,27.07
2018-12-18T18:59:08.996Z,23.90
2018-12-18T19:01:39.255Z,27.10
2018-12-18T19:04:09.458Z,31.07
2018-12-18T19:06:39.764Z,23.80
2018-12-18T19:09:10.717Z,24.53
2018-12-18T19:11:41.437Z,21.77
2018-12-18T19:14:11.266Z,19.57
2018-12-18T19:16:41.114Z,20.37
2018-12-18T19:19:10.899Z,26.23
2018-12-18T19:21:41.146Z,21.27
2018-12-18T19:24:10.950Z,20.10
2018-12-18T19:26:40.790Z,28.47
2018-12-18T19:29:10.967Z,27.67
2018-12-18T19:31:40.860Z,27.20
2018-12-18T19:34:10.795Z,22.17
2018-12-18T19:36:41.571Z,26.63
2018-12-18T19:39:11.339Z,25.27
2018-12-18T19:41:41.459Z,22.90
2018-12-18T19:44:11.666Z,20.13
2018-12-18T19:46:41.462Z,21.53
2018-12-18T19:49:11.283Z,24.87
2018-12-18T19:51:41.765Z,24.50
2018-12-18T19:54:11.833Z,23.23
2018-12-18T19:56:41.646Z,27.73
2018-12-18T19:59:11.413Z,28.83
2018-12-18T20:01:41.218Z,22.53
2018-12-18T20:04:11.033Z,24.43
2018-12-18T20:06:40.782Z,24.03
2018-12-18T20:09:11.609Z,24.97
2018-12-18T20:11:42.113Z,26.60
2018-12-18T20:14:11.939Z,25.90
2018-12-18T20:16:41.778Z,23.80
2018-12-18T20:19:11.593Z,21.07
2018-12-18T20:21:41.378Z,32.03
2018-12-18T20:24:11.948Z,22.63
2018-12-18T20:26:41.882Z,20.97
2018-12-18T20:29:12.018Z,22.43
2018-12-18T20:31:41.810Z,22.63
2018-12-18T20:34:11.631Z,17.93
2018-12-18T20:36:41.738Z,17.93
2018-12-18T20:39:12.218Z,20.03
2018-12-18T20:41:41.988Z,19.53
2018-12-18T20:44:11.796Z,46.13
2018-12-18T20:46:41.928Z,32.83
2018-12-18T20:49:11.737Z,22.77
2018-12-18T20:51:41.534Z,28.40
2018-12-18T20:54:11.318Z,16.53
2018-12-18T20:56:41.094Z,25.33
2018-12-18T20:59:11.194Z,20.95
2018-12-18T21:01:41.016Z,19.07
2018-12-18T21:04:10.751Z,14.17
2018-12-18T21:06:40.567Z,14.83
2018-12-18T21:09:11.334Z,16.60
2018-12-18T21:11:41.063Z,15.90
2018-12-18T21:14:10.844Z,19.10
2018-12-18T21:16:40.666Z,15.87
2018-12-18T21:19:10.450Z,13.87
2018-12-18T21:21:40.317Z,21.23
2018-12-18T21:24:12.210Z,12.93
2018-12-18T21:26:42.046Z,13.17
2018-12-18T21:29:11.830Z,14.33
2018-12-18T21:31:42.096Z,13.83
2018-12-18T21:34:12.213Z,14.33
2018-12-18T21:36:41.943Z,13.40
2018-12-18T21:39:11.955Z,15.50
2018-12-18T21:41:41.732Z,15.70
2018-12-18T21:44:11.646Z,14.17
2018-12-18T21:46:41.615Z,14.77
2018-12-18T21:49:11.458Z,14.70
2018-12-18T21:51:41.574Z,14.77
2018-12-18T21:54:11.386Z,14.13
2018-12-18T21:56:41.133Z,12.63
2018-12-18T21:59:11.306Z,13.77
2018-12-18T22:01:41.580Z,11.80
2018-12-18T22:04:11.356Z,14.90
2018-12-18T22:06:41.376Z,24.83
2018-12-18T22:09:11.115Z,14.77
2018-12-18T22:11:40.905Z,14.87
2018-12-18T22:14:10.659Z,19.07
2018-12-18T22:16:40.634Z,29.07
2018-12-18T22:19:10.428Z,26.33
2018-12-18T22:21:40.201Z,15.40
2018-12-18T22:24:09.939Z,21.57
2018-12-18T22:26:40.063Z,15.07
2018-12-18T22:29:10.170Z,15.33
2018-12-18T22:31:39.936Z,15.37
2018-12-18T22:34:09.737Z,15.67
2018-12-18T22:36:39.499Z,15.33
2018-12-18T22:39:09.660Z,16.80
2018-12-18T22:41:39.522Z,16.50
2018-12-18T22:44:09.359Z,15.63
2018-12-18T22:46:39.286Z,14.53
2018-12-18T22:49:09.320Z,17.30
2018-12-18T22:51:39.282Z,18.60
2018-12-18T22:54:09.480Z,16.67
2018-12-18T22:56:39.400Z,18.80
2018-12-18T22:59:09.198Z,21.07
2018-12-18T23:01:45.378Z,18.50
2018-12-18T23:04:16.391Z,17.40
2018-12-18T23:06:46.752Z,14.13
2018-12-18T23:09:17.324Z,15.20
2018-12-18T23:11:47.374Z,14.77
2018-12-18T23:14:17.183Z,14.70
2018-12-18T23:16:46.954Z,14.07
2018-12-18T23:19:16.920Z,15.43
2018-12-18T23:21:46.840Z,18.67
2018-12-18T23:24:17.039Z,15.63
2018-12-18T23:26:46.851Z,14.63
2018-12-18T23:29:17.357Z,15.10
2018-12-18T23:31:47.285Z,19.80
2018-12-18T23:34:17.117Z,16.30
2018-12-18T23:36:47.068Z,18.63
2018-12-18T23:39:16.984Z,16.77
2018-12-18T23:41:47.641Z,13.63
2018-12-18T23:44:17.899Z,14.13
2018-12-18T23:46:47.677Z,14.30
2018-12-18T23:49:17.453Z,14.87
2018-12-18T23:51:47.939Z,15.07
2018-12-18T23:54:17.778Z,14.57
2018-12-18T23:56:47.638Z,25.20
2018-12-18T23:59:17.712Z,14.30
